M I D A S
Marine Information and Data Acquisition System
Tripno 778 of the Zeeleeuw from 2004-04-20 06:56:50 to 2004-04-20 12:07:06
Back to CruiseResearch ActivitiesStationsMapUnderway DataData graphs

EquipmentUnitsComments
TimeDGPSUTC
LatitudeDGPSDM.mWGS84
LongitudeDGPSDM.mWGS84
SpeedMeteo Stationm/sRelative wind speed
DirectionMeteo StationdegRelative wind direction
TemperatureMeteo Stationdeg CelciusAir temperature
PressureMeteo StationPaAtmospheric pressure
HumidityMeteo Station%Relative humidity
Missing or incorrect values are displayed as -999
Metereological data collected by the RV Zeeleeuw from 2004-04-20 06:56:50 to 2004-04-20 12:07:06
Time Latitude Longitude Speed Direction Temperature Pressure Humidity
2004-04-20 06:57 51°13.683 2°55.773 2.7 162 5.7 100280 88
2004-04-20 06:58 51°13.704 2°55.756 2.6 238 5.7 100280 87
2004-04-20 06:59 51°13.779 2°55.68 0.8 10 5.7 100280 87
2004-04-20 07:00 51°13.895 2°55.597 1.2 324 5.8 100280 87
2004-04-20 07:01 51°13.989 2°55.538 0.5 347 5.9 100280 88
2004-04-20 07:02 51°14.081 2°55.48 2.2 322 6.1 100280 88
2004-04-20 07:03 51°14.193 2°55.371 3.3 350 6.1 100290 88
2004-04-20 07:04 51°14.318 2°55.163 5.4 332 6.2 100280 87
2004-04-20 07:05 51°14.414 2°54.875 7.4 331 6.2 100280 87
2004-04-20 07:06 51°14.399 2°54.512 10.1 335 6.3 100260 87
2004-04-20 07:07 51°14.295 2°54.182 10.3 345 6.3 100260 86
2004-04-20 07:08 51°14.18 2°53.862 10.1 340 6.3 100260 86
2004-04-20 07:09 51°14.069 2°53.535 9.3 341 6.2 100270 86
2004-04-20 07:10 51°13.968 2°53.201 10 342 6.2 100260 86
2004-04-20 07:11 51°13.877 2°52.837 9.6 339 6.2 100270 86
2004-04-20 07:12 51°13.758 2°52.496 9.9 346 6.2 100260 86
2004-04-20 07:13 51°13.636 2°52.152 10.1 345 6.2 100270 86
2004-04-20 07:14 51°13.506 2°51.816 10.6 339 6.2 100260 86
2004-04-20 07:15 51°13.38 2°51.473 10.3 343 6.2 100260 86
2004-04-20 07:16 51°13.255 2°51.129 10.6 342 6.2 100260 87
2004-04-20 07:17 51°13.131 2°50.784 10.1 337 6.2 100260 87
2004-04-20 07:18 51°13.004 2°50.441 10 340 6.2 100260 87
2004-04-20 07:19 51°12.877 2°50.097 10.6 343 6.2 100270 87
2004-04-20 07:20 51°12.75 2°49.752 10.2 346 6.3 100270 87
2004-04-20 07:21 51°12.626 2°49.403 9.9 344 6.3 100270 87
2004-04-20 07:22 51°12.499 2°49.055 10.3 349 6.3 100270 87
2004-04-20 07:23 51°12.371 2°48.71 10 346 6.4 100280 87
2004-04-20 07:24 51°12.251 2°48.359 9.6 346 6.4 100280 87
2004-04-20 07:25 51°12.144 2°47.996 9.1 345 6.5 100280 86
2004-04-20 07:26 51°12.038 2°47.63 10.4 347 6.5 100280 86
2004-04-20 07:27 51°11.933 2°47.263 10.4 349 6.6 100280 86
2004-04-20 07:28 51°11.828 2°46.896 10 346 6.6 100280 86
2004-04-20 07:29 51°11.723 2°46.528 9.5 348 6.6 100290 86
2004-04-20 07:30 51°11.628 2°46.155 9.3 348 6.6 100290 85
2004-04-20 07:31 51°11.537 2°45.78 8.9 347 6.8 100290 85
2004-04-20 07:32 51°11.444 2°45.405 10.6 349 6.8 100290 85
2004-04-20 07:33 51°11.351 2°45.032 10.5 344 6.8 100280 84
2004-04-20 07:34 51°11.259 2°44.659 9.5 349 6.8 100290 84
2004-04-20 07:35 51°11.168 2°44.285 9.6 345 6.9 100290 84
2004-04-20 07:36 51°11.08 2°43.917 9.5 345 6.9 100280 83
2004-04-20 07:37 51°10.988 2°43.537 9.3 349 6.9 100290 83
2004-04-20 07:38 51°10.899 2°43.165 9.7 346 6.9 100290 83
2004-04-20 07:39 51°10.81 2°42.794 10.1 343 6.9 100290 83
2004-04-20 07:40 51°10.721 2°42.423 9.5 344 6.9 100300 83
2004-04-20 07:41 51°10.632 2°42.053 9.7 352 7 100290 83
2004-04-20 07:42 51°10.544 2°41.682 9.3 349 7 100300 82
2004-04-20 07:43 51°10.454 2°41.312 9.5 348 7 100300 83
2004-04-20 07:44 51°10.368 2°40.941 9.4 350 7.1 100290 83
2004-04-20 07:45 51°10.282 2°40.571 9.6 349 7.1 100290 82
2004-04-20 07:46 51°10.194 2°40.2 9.3 351 7.2 100290 82
2004-04-20 07:47 51°10.109 2°39.831 9.1 350 7.2 100300 81
2004-04-20 07:48 51°10.022 2°39.46 9.7 351 7.2 100290 81
2004-04-20 07:49 51°9.935 2°39.088 9.3 353 7.2 100290 81
2004-04-20 07:50 51°9.851 2°38.721 9.4 349 7.2 100290 80
2004-04-20 07:51 51°9.762 2°38.341 9.4 352 7.2 100300 80
2004-04-20 07:52 51°9.675 2°37.968 9.7 348 7.2 100300 80
2004-04-20 07:53 51°9.589 2°37.6 9.1 353 7.3 100300 80
2004-04-20 07:54 51°9.5 2°37.219 9.7 350 7.3 100300 79
2004-04-20 07:55 51°9.417 2°36.84 9.5 353 7.3 100300 79
2004-04-20 07:56 51°9.331 2°36.576 6.3 355 7.3 100300 79
2004-04-20 07:57 51°9.249 2°36.48 4.8 3 7.3 100320 79
2004-04-20 07:58 51°9.206 2°36.4 3.4 321 7.4 100320 79
2004-04-20 07:59 51°9.195 2°36.37 2.9 292 7.4 100320 79
2004-04-20 08:00 51°9.185 2°36.338 2.1 288 7.5 100320 79
2004-04-20 08:01 51°9.176 2°36.305 2.8 297 7.5 100320 79
2004-04-20 08:02 51°9.166 2°36.271 2.6 299 7.6 100320 79
2004-04-20 08:03 51°9.158 2°36.234 2.8 304 7.7 100330 78
2004-04-20 08:04 51°9.15 2°36.196 2.7 301 7.7 100330 78
2004-04-20 08:05 51°9.142 2°36.158 2.6 307 7.8 100330 78
2004-04-20 08:06 51°9.133 2°36.104 3.4 327 7.8 100330 78
2004-04-20 08:07 51°9.105 2°36.017 3.2 346 7.9 100330 78
2004-04-20 08:08 51°9.072 2°35.939 3.9 338 7.9 100340 77
2004-04-20 08:09 51°9.035 2°35.841 4.4 339 7.8 100340 77
2004-04-20 08:10 51°9.002 2°35.733 3.7 334 7.8 100340 77
2004-04-20 08:11 51°8.974 2°35.625 3.8 333 7.8 100340 77
2004-04-20 08:12 51°8.952 2°35.53 3.6 323 7.8 100340 77
2004-04-20 08:13 51°8.933 2°35.442 3.2 323 7.8 100340 77
2004-04-20 08:14 51°8.914 2°35.36 3.3 320 7.9 100340 77
2004-04-20 08:15 51°8.893 2°35.282 3.1 323 7.9 100340 77
2004-04-20 08:16 51°8.869 2°35.202 3 318 7.9 100340 77
2004-04-20 08:17 51°8.844 2°35.125 3.1 323 8 100340 77
2004-04-20 08:18 51°8.817 2°35.047 3.3 332 8 100340 77
2004-04-20 08:19 51°8.79 2°34.969 2.9 326 8 100340 77
2004-04-20 08:20 51°8.763 2°34.89 3 338 8 100340 77
2004-04-20 08:21 51°8.735 2°34.81 3.6 339 8 100340 77
2004-04-20 08:22 51°8.708 2°34.731 3.1 334 8 100340 77
2004-04-20 08:23 51°8.681 2°34.651 3.3 330 8 100340 77
2004-04-20 08:24 51°8.655 2°34.573 3.3 337 8 100350 77
2004-04-20 08:25 51°8.628 2°34.493 3.6 333 8.1 100350 78
2004-04-20 08:26 51°8.602 2°34.414 3.2 332 8.1 100350 78
2004-04-20 08:27 51°8.575 2°34.336 3.3 330 8.1 100350 78
2004-04-20 08:28 51°8.549 2°34.259 3.2 334 8.1 100350 77
2004-04-20 08:29 51°8.524 2°34.18 2.9 334 8.1 100350 77
2004-04-20 08:30 51°8.496 2°34.103 3.5 341 8.2 100350 78
2004-04-20 08:31 51°8.468 2°34.028 3.3 344 8.2 100350 78
2004-04-20 08:32 51°8.44 2°33.953 2.9 339 8.3 100350 78
2004-04-20 08:33 51°8.411 2°33.879 3.2 332 8.3 100350 77
2004-04-20 08:34 51°8.382 2°33.807 2.7 331 8.4 100350 77
2004-04-20 08:35 51°8.353 2°33.735 2.4 336 8.4 100350 77
2004-04-20 08:36 51°8.325 2°33.663 2.3 337 8.5 100350 77
2004-04-20 08:37 51°8.298 2°33.59 2.6 333 8.5 100350 77
2004-04-20 08:38 51°8.271 2°33.516 2.1 334 8.5 100350 77
2004-04-20 08:39 51°8.245 2°33.443 2.4 334 8.6 100350 77
2004-04-20 08:40 51°8.221 2°33.37 2.1 334 8.6 100350 76
2004-04-20 08:41 51°8.194 2°33.295 2.1 349 8.6 100350 76
2004-04-20 08:42 51°8.17 2°33.222 2.6 353 8.7 100360 76
2004-04-20 08:43 51°8.145 2°33.15 2.4 352 8.7 100360 75
2004-04-20 08:44 51°8.121 2°33.077 2.2 5 8.7 100360 75
2004-04-20 08:45 51°8.097 2°33.006 1.5 1 8.7 100360 75
2004-04-20 08:46 51°8.072 2°32.929 2.3 5 8.7 100360 75
2004-04-20 08:47 51°8.051 2°32.848 2.1 1 8.7 100360 75
2004-04-20 08:48 51°8.03 2°32.764 2.2 357 8.7 100360 75
2004-04-20 08:49 51°8.004 2°32.679 2.8 9 8.7 100360 75
2004-04-20 08:50 51°7.973 2°32.605 2.3 18 8.7 100360 75
2004-04-20 08:51 51°7.941 2°32.551 1.8 21 8.7 100360 75
2004-04-20 08:52 51°7.911 2°32.507 1.6 20 8.8 100370 75
2004-04-20 08:53 51°7.856 2°32.5 2.1 33 8.8 100370 75
2004-04-20 08:54 51°7.84 2°32.574 0.6 31 8.7 100370 75
2004-04-20 08:55 51°7.858 2°32.625 0.7 18 8.8 100370 76
2004-04-20 08:56 51°7.877 2°32.683 1.1 5 8.9 100370 76
2004-04-20 08:57 51°7.895 2°32.742 0.9 6 9.1 100370 75
2004-04-20 08:58 51°7.914 2°32.804 0.8 5 9.2 100370 74
2004-04-20 08:59 51°7.932 2°32.864 0.8 349 9.3 100380 74
2004-04-20 09:00 51°7.953 2°32.918 1 339 9.5 100380 74
2004-04-20 09:01 51°7.975 2°32.971 1.3 343 9.7 100380 74
2004-04-20 09:02 51°7.995 2°33.028 1.4 345 9.8 100380 73
2004-04-20 09:03 51°8.016 2°33.085 1.6 346 9.8 100380 72
2004-04-20 09:04 51°8.037 2°33.141 1.3 353 9.9 100380 71
2004-04-20 09:05 51°8.059 2°33.197 1.1 349 10 100380 71
2004-04-20 09:06 51°8.081 2°33.253 1.2 343 10 100380 70
2004-04-20 09:07 51°8.102 2°33.309 1 338 10.1 100380 70
2004-04-20 09:08 51°8.123 2°33.364 1.4 339 10.1 100380 70
2004-04-20 09:09 51°8.145 2°33.419 1.4 337 10.2 100390 69
2004-04-20 09:10 51°8.165 2°33.475 1.6 335 10.2 100390 69
2004-04-20 09:11 51°8.186 2°33.53 1.4 335 10.3 100390 69
2004-04-20 09:12 51°8.208 2°33.585 1.9 334 10.3 100390 69
2004-04-20 09:13 51°8.224 2°33.644 1.9 338 10.3 100390 69
2004-04-20 09:14 51°8.239 2°33.706 1.9 331 10.3 100400 68
2004-04-20 09:15 51°8.255 2°33.766 1.9 334 10.3 100390 68
2004-04-20 09:16 51°8.271 2°33.826 2.1 330 10.3 100390 69
2004-04-20 09:17 51°8.287 2°33.885 1.9 325 10.2 100390 69
2004-04-20 09:18 51°8.307 2°33.939 2.3 323 10.2 100390 69
2004-04-20 09:19 51°8.329 2°33.991 2.4 336 10.2 100390 69
2004-04-20 09:20 51°8.351 2°34.044 2.3 341 10.1 100400 69
2004-04-20 09:21 51°8.372 2°34.098 2.3 343 10.1 100400 69
2004-04-20 09:22 51°8.394 2°34.151 2 331 10.1 100400 70
2004-04-20 09:23 51°8.416 2°34.207 2.1 336 10.1 100400 70
2004-04-20 09:24 51°8.44 2°34.265 2.1 337 10 100410 70
2004-04-20 09:25 51°8.465 2°34.325 2.2 340 10 100400 70
2004-04-20 09:26 51°8.491 2°34.383 2.6 344 10 100410 70
2004-04-20 09:27 51°8.521 2°34.436 2.5 344 10 100410 70
2004-04-20 09:28 51°8.549 2°34.49 2.2 344 9.9 100410 70
2004-04-20 09:29 51°8.58 2°34.547 2.2 340 9.9 100410 70
2004-04-20 09:30 51°8.609 2°34.598 2.4 342 10 100410 71
2004-04-20 09:31 51°8.636 2°34.647 2.3 331 9.9 100420 70
2004-04-20 09:32 51°8.655 2°34.699 2 329 10 100420 71
2004-04-20 09:33 51°8.673 2°34.753 2.2 330 10 100420 71
2004-04-20 09:34 51°8.692 2°34.806 2.2 332 10 100420 71
2004-04-20 09:35 51°8.711 2°34.859 2.5 333 10 100420 71
2004-04-20 09:36 51°8.731 2°34.905 2.2 328 10 100420 70
2004-04-20 09:37 51°8.746 2°34.931 2.1 332 10 100420 70
2004-04-20 09:38 51°8.76 2°34.944 2 330 10 100420 71
2004-04-20 09:39 51°8.771 2°34.95 1.9 325 10.1 100420 70
2004-04-20 09:40 51°8.779 2°34.949 1.6 318 10 100420 70
2004-04-20 09:41 51°8.788 2°34.947 1.8 324 10 100430 70
2004-04-20 09:42 51°8.8 2°34.945 1.9 327 10 100430 70
2004-04-20 09:43 51°8.815 2°34.947 1.8 325 10.1 100430 70
2004-04-20 09:44 51°8.828 2°34.958 1.9 324 10 100430 70
2004-04-20 09:45 51°8.838 2°34.977 1.6 313 10 100430 70
2004-04-20 09:46 51°8.845 2°35.004 1.4 302 10 100430 70
2004-04-20 09:47 51°8.842 2°35.037 1.4 295 9.9 100430 70
2004-04-20 09:48 51°8.832 2°35.072 1.5 299 9.9 100430 70
2004-04-20 09:49 51°8.812 2°35.106 1.3 293 9.9 100430 70
2004-04-20 09:50 51°8.786 2°35.135 1.4 280 9.9 100430 70
2004-04-20 09:51 51°8.759 2°35.155 1.3 279 9.8 100430 71
2004-04-20 09:52 51°8.735 2°35.171 1.4 272 9.8 100430 71
2004-04-20 09:53 51°8.715 2°35.186 1.5 272 9.7 100430 71
2004-04-20 09:54 51°8.699 2°35.2 1.8 271 9.6 100430 71
2004-04-20 09:55 51°8.685 2°35.213 1.7 280 9.6 100430 71
2004-04-20 09:56 51°8.673 2°35.224 1.8 291 9.7 100430 72
2004-04-20 09:57 51°8.661 2°35.236 1.7 291 9.8 100430 72
2004-04-20 09:58 51°8.651 2°35.246 1.7 292 9.9 100430 72
2004-04-20 09:59 51°8.641 2°35.255 1.8 296 9.9 100430 71
2004-04-20 10:00 51°8.633 2°35.264 1.8 293 10 100430 71
2004-04-20 10:01 51°8.625 2°35.273 1.6 290 10.1 100430 71
2004-04-20 10:02 51°8.618 2°35.282 1.7 294 10.1 100430 70
2004-04-20 10:03 51°8.61 2°35.291 1.7 303 10.1 100430 70
2004-04-20 10:04 51°8.605 2°35.299 1.7 305 10.1 100430 70
2004-04-20 10:05 51°8.621 2°35.356 4.4 351 10.1 100440 70
2004-04-20 10:06 51°8.706 2°35.504 6.3 352 9.9 100430 69
2004-04-20 10:07 51°8.774 2°35.734 6.8 356 9.9 100430 71
2004-04-20 10:08 51°8.843 2°35.979 7.1 353 9.7 100430 71
2004-04-20 10:09 51°8.911 2°36.229 6.6 352 9.7 100430 72
2004-04-20 10:10 51°8.979 2°36.48 7 351 9.7 100440 72
2004-04-20 10:11 51°9.034 2°36.74 6.9 351 9.6 100440 72
2004-04-20 10:12 51°9.086 2°37.002 6.4 349 9.6 100440 73
2004-04-20 10:13 51°9.139 2°37.267 7.2 350 9.6 100440 73
2004-04-20 10:14 51°9.192 2°37.532 7.1 348 9.6 100440 73
2004-04-20 10:15 51°9.245 2°37.797 6.8 347 9.6 100440 73
2004-04-20 10:16 51°9.299 2°38.061 6.3 346 9.5 100440 74
2004-04-20 10:17 51°9.353 2°38.326 6.4 346 9.5 100450 74
2004-04-20 10:18 51°9.408 2°38.592 7 344 9.5 100450 74
2004-04-20 10:19 51°9.463 2°38.857 7.2 348 9.5 100440 75
2004-04-20 10:20 51°9.517 2°39.123 6.8 347 9.6 100440 75
2004-04-20 10:21 51°9.571 2°39.389 6.9 347 9.6 100450 75
2004-04-20 10:22 51°9.627 2°39.655 6.7 345 9.6 100440 75
2004-04-20 10:23 51°9.682 2°39.921 6.6 347 9.6 100440 75
2004-04-20 10:24 51°9.737 2°40.188 7 348 9.6 100440 75
2004-04-20 10:25 51°9.792 2°40.454 7 349 9.6 100440 76
2004-04-20 10:26 51°9.846 2°40.721 7 345 9.7 100440 75
2004-04-20 10:27 51°9.901 2°40.988 7.3 347 9.7 100450 75
2004-04-20 10:28 51°9.957 2°41.256 6.7 347 9.7 100440 76
2004-04-20 10:29 51°10.012 2°41.525 6.9 346 9.8 100440 76
2004-04-20 10:30 51°10.078 2°41.838 8.5 351 9.8 100440 75
2004-04-20 10:31 51°10.151 2°42.181 8.7 352 9.8 100440 75
2004-04-20 10:32 51°10.224 2°42.528 8.5 354 9.9 100440 75
2004-04-20 10:33 51°10.298 2°42.876 8.7 352 9.9 100440 75
2004-04-20 10:34 51°10.373 2°43.226 8 353 9.9 100440 75
2004-04-20 10:35 51°10.447 2°43.577 7.6 360 9.9 100450 74
2004-04-20 10:36 51°10.524 2°43.928 8 352 9.9 100440 74
2004-04-20 10:37 51°10.6 2°44.281 8.3 348 10 100440 73
2004-04-20 10:38 51°10.678 2°44.633 6.9 34 10 100450 72
2004-04-20 10:39 51°10.756 2°44.986 6.4 23 10.2 100450 68
2004-04-20 10:40 51°10.834 2°45.337 6.9 29 10.5 100450 67
2004-04-20 10:41 51°10.913 2°45.692 7.2 45 10.7 100440 65
2004-04-20 10:42 51°10.992 2°46.047 9.1 20 10.6 100440 64
2004-04-20 10:43 51°11.071 2°46.402 9.2 31 10.7 100440 63
2004-04-20 10:44 51°11.152 2°46.756 8.3 26 10.8 100440 61
2004-04-20 10:45 51°11.244 2°47.105 5.5 32 10.8 100440 61
2004-04-20 10:46 51°11.314 2°47.335 2.2 66 10.8 100450 62
2004-04-20 10:47 51°11.375 2°47.426 3.9 126 10.8 100450 63
2004-04-20 10:48 51°11.399 2°47.47 3.8 107 10.9 100450 62
2004-04-20 10:49 51°11.415 2°47.511 2.1 69 10.9 100450 61
2004-04-20 10:50 51°11.428 2°47.557 4 104 11 100450 61
2004-04-20 10:51 51°11.449 2°47.614 3.6 101 11.1 100450 61
2004-04-20 10:52 51°11.477 2°47.677 3.8 121 11.2 100450 61
2004-04-20 10:53 51°11.505 2°47.747 3.1 102 11.2 100450 60
2004-04-20 10:54 51°11.533 2°47.821 4.1 108 11.2 100450 60
2004-04-20 10:55 51°11.554 2°47.898 3.1 118 11.2 100450 60
2004-04-20 10:56 51°11.574 2°47.975 3.7 108 11.1 100450 60
2004-04-20 10:57 51°11.597 2°48.054 4.2 86 11.1 100450 61
2004-04-20 10:58 51°11.624 2°48.133 4.2 64 11.1 100450 62
2004-04-20 10:59 51°11.653 2°48.213 3.5 52 11.1 100450 61
2004-04-20 11:00 51°11.681 2°48.294 4.8 40 11 100450 63
2004-04-20 11:01 51°11.707 2°48.377 4.9 60 11 100440 67
2004-04-20 11:02 51°11.734 2°48.461 3.5 102 11.1 100450 61
2004-04-20 11:03 51°11.762 2°48.545 3.3 114 11.2 100450 61
2004-04-20 11:04 51°11.794 2°48.625 1.5 130 11.3 100450 62
2004-04-20 11:05 51°11.826 2°48.699 2.9 120 11.4 100450 61
2004-04-20 11:06 51°11.859 2°48.769 2 138 11.5 100460 59
2004-04-20 11:07 51°11.891 2°48.842 3.6 110 11.5 100450 60
2004-04-20 11:08 51°11.922 2°48.917 3.7 89 11.5 100460 60
2004-04-20 11:09 51°11.954 2°48.993 4.8 116 11.5 100460 60
2004-04-20 11:10 51°11.985 2°49.07 4.2 117 11.5 100450 60
2004-04-20 11:11 51°12.018 2°49.144 2.4 115 11.4 100460 59
2004-04-20 11:12 51°12.052 2°49.217 2.1 101 11.4 100460 58
2004-04-20 11:13 51°12.087 2°49.289 2.6 112 11.5 100460 59
2004-04-20 11:14 51°12.124 2°49.362 2.8 86 11.6 100460 58
2004-04-20 11:15 51°12.157 2°49.439 4.4 67 11.6 100460 58
2004-04-20 11:16 51°12.187 2°49.515 3.9 67 11.5 100460 58
2004-04-20 11:17 51°12.217 2°49.593 4.5 71 11.4 100460 59
2004-04-20 11:18 51°12.247 2°49.67 4.1 96 11.3 100460 61
2004-04-20 11:19 51°12.277 2°49.748 4.2 64 11.3 100460 60
2004-04-20 11:20 51°12.309 2°49.825 3.2 78 11.3 100460 61
2004-04-20 11:21 51°12.342 2°49.9 2.5 106 11.3 100460 60
2004-04-20 11:22 51°12.375 2°49.977 2.5 95 11.3 100460 61
2004-04-20 11:23 51°12.408 2°50.054 2.4 114 11.4 100460 60
2004-04-20 11:24 51°12.442 2°50.132 4.4 50 11.5 100460 60
2004-04-20 11:25 51°12.475 2°50.208 2.9 57 11.5 100460 57
2004-04-20 11:26 51°12.508 2°50.285 2.1 77 11.4 100460 58
2004-04-20 11:27 51°12.542 2°50.364 2.8 78 11.5 100460 59
2004-04-20 11:28 51°12.574 2°50.442 2.1 82 11.5 100460 59
2004-04-20 11:29 51°12.606 2°50.52 4.6 61 11.5 100460 59
2004-04-20 11:30 51°12.642 2°50.597 3.3 65 11.5 100460 58
2004-04-20 11:31 51°12.687 2°50.677 3.8 74 11.4 100460 60
2004-04-20 11:32 51°12.73 2°50.744 3.7 97 11.4 100460 59
2004-04-20 11:33 51°12.825 2°50.784 1.5 77 11.4 100470 61
2004-04-20 11:34 51°12.875 2°50.648 3.7 328 11.5 100470 60
2004-04-20 11:35 51°12.807 2°50.498 7.2 358 11.7 100470 59
2004-04-20 11:36 51°12.713 2°50.358 5.7 344 11.9 100460 57
2004-04-20 11:37 51°12.653 2°50.282 4.9 336 12 100470 56
2004-04-20 11:38 51°12.612 2°50.28 2.9 357 12.1 100470 57
2004-04-20 11:39 51°12.578 2°50.276 3.1 317 12.2 100470 55
2004-04-20 11:40 51°12.618 2°50.216 0.7 342 12.3 100470 57
2004-04-20 11:41 51°12.662 2°50.239 1.4 129 12.4 100470 57
2004-04-20 11:42 51°12.688 2°50.281 2.2 100 12.5 100470 55
2004-04-20 11:43 51°12.713 2°50.328 2.2 126 12.5 100470 57
2004-04-20 11:44 51°12.738 2°50.376 1.2 114 12.5 100470 54
2004-04-20 11:45 51°12.765 2°50.427 3.4 148 12.5 100470 53
2004-04-20 11:46 51°12.792 2°50.477 3.2 125 12.3 100470 52
2004-04-20 11:47 51°12.819 2°50.528 4.7 133 12.2 100470 52
2004-04-20 11:48 51°12.849 2°50.58 4.4 132 12.1 100470 52
2004-04-20 11:49 51°12.928 2°50.712 3.9 47 12.1 100470 48
2004-04-20 11:50 51°13.08 2°51.008 8.9 42 12 100460 51
2004-04-20 11:51 51°13.229 2°51.357 8.2 18 11.8 100460 49
2004-04-20 11:52 51°13.378 2°51.705 7.9 16 11.9 100470 55
2004-04-20 11:53 51°13.53 2°52.053 7.9 17 12 100460 56
2004-04-20 11:54 51°13.682 2°52.401 8.4 14 12.2 100460 54
2004-04-20 11:55 51°13.835 2°52.749 10.9 356 12.2 100460 60
2004-04-20 11:56 51°13.962 2°53.116 8.2 358 11.8 100460 64
2004-04-20 11:57 51°14.123 2°53.445 9.6 358 11.5 100460 65
2004-04-20 11:58 51°14.302 2°53.751 10.7 352 11.4 100460 66
2004-04-20 11:59 51°14.472 2°54.068 9.9 348 11.3 100460 68
2004-04-20 12:00 51°14.505 2°54.455 9.6 335 11.2 100460 68
2004-04-20 12:01 51°14.427 2°54.826 7.2 337 11 100470 68
2004-04-20 12:02 51°14.33 2°55.13 4.1 326 10.9 100470 68
2004-04-20 12:03 51°14.225 2°55.325 2 306 10.9 100480 69
2004-04-20 12:04 51°14.119 2°55.442 0.4 310 11 100480 69
2004-04-20 12:05 51°13.998 2°55.523 1.9 337 11.1 100490 69
2004-04-20 12:06 51°13.87 2°55.611 1.9 356 11.1 100490 69